Skip to main content

NOAA/GLERL Met Station at Muskegon, MI

Previous 5 days (top of hour only)
See also Previous 3 Hours (2 minute increments)
Jump down to Data
Switch to [English][Metric]
Zoom: Click and drag, Pan: shift-click and drag, Unzoom: double-click, Unzoom All






Note: Speed = mean wind during 2-minute period at top of hour,
Gust = max wind during 2-minute period at top of hour,
Peak = max wind during entire hour.
• See also 5-day windrose plot


NOAA/GLERL Met Station at Muskegon, MI

Previous 5 days (top of hour only)
See also Previous 3 Hours (2 minute increments)
Jump up to Graphs
Switch to [English][Metric]
                  Wind  Wind  Wind   Air   Dew   Rel     Sta   PAR
                   Spd   Gst   Dir  Temp    Pt   Hum    Pres uE/m2/
YYYY-MM-DD   EDT   kts   kts   deg     F     F     %   in Hg   sec
2017-05-27 00:00   1.9   2.1    36  55.2  53.5  93.9   29.23     2
2017-05-26 23:00   2.3   2.7   348  56.7  54.4  91.9   29.24     2
2017-05-26 22:00   3.1   3.5    95  56.5  53.3  89.1   29.22     2
2017-05-26 21:00   1.4   1.9    42  57.2  52.2  83.1   29.22     9
2017-05-26 20:00   2.9   3.7    63  55.0  51.8  88.8   29.23   118
2017-05-26 19:00   7.8   9.7   358  53.4  50.3  89.1   29.23   412
2017-05-26 18:00   9.1   9.9   302  53.2  50.5  90.3   29.24  1220
2017-05-26 17:00   2.1   2.7   341  55.8  50.9  83.5   29.20  1170
2017-05-26 16:00   5.2   6.4   279  51.8  49.8  92.9   29.23   863
2017-05-26 15:00   4.9   5.4   270  52.9  50.6  91.9   29.22  1522
2017-05-26 14:00   2.7   3.5   223  53.4  50.4  89.3   29.22  1412
2017-05-26 13:00   4.1   4.5   251  51.3  49.2  92.5   29.25  1963
2017-05-26 12:00   4.1   4.7   284  51.4  49.4  92.6   29.25  2074
2017-05-26 11:00   5.1   5.6   350  50.2  49.1  96.0   29.24  2241
2017-05-26 10:00   1.7   3.3   108  59.0  52.0  77.3   29.23  2006
2017-05-26 09:00   5.8   7.4    93  54.3  50.5  86.6   29.23  1737
2017-05-26 08:00   4.7   6.0    80  52.9  51.0  93.1   29.22  1425
2017-05-26 07:00   4.9   6.6    35  50.7  50.5  99.0   29.20   763
2017-05-26 06:00   2.9   4.5    17  48.6  48.3  98.9   29.19     6
2017-05-26 05:00  11.1  12.6   351  48.0  47.6  98.4   29.17     2
2017-05-26 04:00   9.9  11.7   347  50.0  49.4  97.7   29.14     2
2017-05-26 03:00  11.7  13.2   344  50.0  49.4  97.6   29.12     2
2017-05-26 02:00  10.1  11.5   346  50.4  49.7  97.5   29.11     2
2017-05-26 01:00  10.5  12.2   355  50.5  49.6  96.7   29.09     2
2017-05-26 00:00   8.6   9.5   347  51.8  50.7  96.0   29.08     2
2017-05-25 23:00   8.4   8.9   351  52.5  50.8  93.8   29.07     2
2017-05-25 22:00   8.7  10.5    18  55.2  52.8  91.3   29.03     2
2017-05-25 21:00  14.6  15.2   346  52.9  50.8  92.6   29.01   137
2017-05-25 20:00  15.6  17.1   346  53.2  50.0  88.7   28.98  1142
2017-05-25 19:00  17.5  21.2   349  55.0  50.6  84.8   28.98  1898
2017-05-25 18:00  18.9  22.7   345  55.0  50.9  85.9   28.97  2291
2017-05-25 17:00  13.6  15.9   346  55.0  51.1  86.5   28.96  1575
2017-05-25 16:00  16.9  18.7   345  55.0  51.0  86.2   28.95  1231
2017-05-25 15:00  12.2  14.0   348  55.0  51.7  88.2   28.95   615
2017-05-25 14:00  14.4  15.0   344  54.7  51.6  89.1   28.95   976
2017-05-25 13:00  10.5  12.6    41  64.4  55.0  71.1   28.95  1535
2017-05-25 12:00   7.2   9.3    35  62.2  54.6  75.8   28.95   909
2017-05-25 11:00   6.8   8.4    48  60.8  54.0  77.9   28.95   509
2017-05-25 10:00   9.7  12.4    65  59.2  53.7  81.7   28.94   420
2017-05-25 09:00  11.5  14.0    64  58.5  53.6  83.8   28.93  1202
2017-05-25 08:00   9.3  11.5    43  56.7  53.7  89.8   28.93   248
2017-05-25 07:00   6.2   8.0    44  56.5  53.7  90.4   28.92   127
2017-05-25 06:00   7.8   8.9    63  56.3  53.9  91.5   28.91     3
2017-05-25 05:00  10.7  13.2    62  55.8  53.6  92.5   28.89     2
2017-05-25 04:00  12.1  16.3    77  56.5  54.1  91.5   28.89     2
2017-05-25 03:00  10.5  12.8    65  56.5  54.2  91.8   28.92     2
2017-05-25 02:00  11.1  16.3    70  59.0  52.3  78.2   28.93     2
2017-05-25 01:00  10.1  13.8    70  61.0  51.2  69.8   28.93     2
2017-05-25 00:00  11.3  14.6    65  61.9  52.5  71.0   28.92     2
2017-05-24 23:00   8.2  11.1    70  62.8  53.5  71.3   28.93     2
2017-05-24 22:00   6.4   8.2    62  63.3  54.0  71.4   28.93     2
2017-05-24 21:00   8.6  11.7    76  64.6  54.3  69.0   28.93    19
2017-05-24 20:00   5.8   8.2    82  66.0  54.0  64.8   28.93    74
2017-05-24 19:00   4.3   5.1     4  61.9  53.5  73.8   28.92   274
2017-05-24 18:00   4.9   6.4   220  60.3  53.8  78.9   28.91   305
2017-05-24 17:00   8.0  10.3    70  68.5  54.3  59.9   28.90   767
2017-05-24 16:00   7.6  10.9    79  66.2  52.9  61.9   28.91   765
2017-05-24 15:00   7.8  12.1    84  69.8  53.5  55.8   28.91  1358
2017-05-24 14:00  12.4  17.3    75  67.5  52.6  58.5   28.93  2442
2017-05-24 13:00   9.1  12.1    87  65.1  54.5  68.0   28.95  1971
2017-05-24 12:00  14.4  17.9    67  59.9  53.8  79.9   28.95   950
2017-05-24 11:00   9.9  11.5    67  58.6  54.2  85.0   28.97   354
2017-05-24 10:00   7.2   9.7    67  57.9  54.4  87.9   28.98   449
2017-05-24 09:00   6.2   7.8    49  57.0  54.4  90.8   29.00   601
2017-05-24 08:00   8.7  10.9    60  55.9  53.8  92.4   28.99   194
2017-05-24 07:00   8.2  10.5    57  55.6  53.7  93.2   29.00    44
2017-05-24 06:00   6.4   8.7    71  55.9  53.8  92.4   29.00     2
2017-05-24 05:00   8.4  10.3    85  55.8  53.9  93.5   29.01     2
2017-05-24 04:00   6.6   8.7    85  55.4  53.4  92.9   29.02     2
2017-05-24 03:00   5.4   7.0    80  55.0  53.3  93.9   29.04     2
2017-05-24 02:00   2.3   2.9    82  55.8  53.7  92.8   29.06     2
2017-05-24 01:00   2.3   2.7    70  55.2  53.1  92.4   29.07     2
2017-05-24 00:00   5.6   6.4    83  57.4  52.5  83.5   29.08     2
2017-05-23 23:00   7.8   9.3    64  57.0  55.3  94.0   29.09     2
2017-05-23 22:00   5.2   5.8    70  58.5  55.1  88.5   29.09     2
2017-05-23 21:00   5.1   5.6    52  58.8  54.9  86.7   29.09    15
2017-05-23 20:00   3.9   5.4    67  59.7  54.4  82.3   29.10   110
2017-05-23 19:00   2.5   3.5   102  59.7  54.4  82.2   29.11   277
2017-05-23 18:00   9.3   9.9   176  56.8  54.8  92.8   29.12   367
2017-05-23 17:00  13.6  14.8   181  56.5  54.4  92.5   29.13   755
2017-05-23 16:00  10.3  11.3   191  54.9  53.0  93.2   29.14   577
2017-05-23 15:00  11.3  12.1   186  55.6  51.8  87.1   29.15   974
2017-05-23 14:00  10.5  11.7   192  54.3  51.0  88.4   29.17   742
2017-05-23 13:00   9.3  10.5   191  54.9  50.6  85.3   29.17  1288
2017-05-23 12:00   8.6   9.3   190  56.8  50.9  80.2   29.18  2393
2017-05-23 11:00   8.2   9.1   196  56.5  51.7  83.9   29.18  2220
2017-05-23 10:00   7.8   9.5   192  55.4  51.4  86.3   29.18  1740
2017-05-23 09:00  13.2  14.2   189  54.7  51.0  87.1   29.18  1605
2017-05-23 08:00  11.5  12.6   188  52.3  50.1  92.1   29.18   213
2017-05-23 07:00  10.9  11.9   197  53.2  51.0  91.9   29.18   139
2017-05-23 06:00  12.4  14.4   187  52.9  50.8  92.5   29.19     3
2017-05-23 05:00  12.4  14.2   189  53.2  50.7  91.1   29.19     2
2017-05-23 04:00  12.6  14.8   197  53.1  50.9  92.3   29.20     2
2017-05-23 03:00  12.6  14.0   196  52.0  49.6  91.4   29.22     2
2017-05-23 02:00  14.4  15.2   249  53.4  50.9  90.9   29.22     2
2017-05-23 01:00  15.4  17.7   244  52.9  50.1  90.3   29.23     2
2017-05-23 00:00  15.9  16.9   243  53.2  49.4  86.7   29.23     2
2017-05-22 23:00  17.7  19.4   236  54.3  48.5  80.6   29.24     2
2017-05-22 22:00  16.1  21.0   224  55.6  48.3  76.2   29.24     2
2017-05-22 21:00  12.8  13.8   198  56.3  48.8  75.6   29.24    11
2017-05-22 20:00  10.1  10.9   181  56.1  49.1  77.1   29.25    77